sensor_id;sensor_type;location;lat;lon;timestamp;P1;durP1;ratioP1;P2;durP2;ratioP2
8584;SDS011;7180;52.742;11.420;2023-06-22T00:00:39;14.23;;;13.13;;
8584;SDS011;7180;52.742;11.420;2023-06-22T00:03:07;14.13;;;13.23;;
8584;SDS011;7180;52.742;11.420;2023-06-22T00:05:32;14.00;;;13.07;;
8584;SDS011;7180;52.742;11.420;2023-06-22T00:07:57;14.23;;;13.33;;
8584;SDS011;7180;52.742;11.420;2023-06-22T00:10:22;14.10;;;13.20;;
8584;SDS011;7180;52.742;11.420;2023-06-22T00:12:48;14.83;;;13.73;;
8584;SDS011;7180;52.742;11.420;2023-06-22T00:15:13;14.60;;;13.67;;
8584;SDS011;7180;52.742;11.420;2023-06-22T00:17:38;14.20;;;13.30;;
8584;SDS011;7180;52.742;11.420;2023-06-22T00:20:04;14.53;;;13.63;;
8584;SDS011;7180;52.742;11.420;2023-06-22T00:22:30;15.17;;;14.13;;
8584;SDS011;7180;52.742;11.420;2023-06-22T00:24:56;14.57;;;13.67;;
8584;SDS011;7180;52.742;11.420;2023-06-22T00:27:21;15.27;;;14.27;;
8584;SDS011;7180;52.742;11.420;2023-06-22T00:29:46;14.47;;;13.57;;
8584;SDS011;7180;52.742;11.420;2023-06-22T00:32:12;15.17;;;14.20;;
8584;SDS011;7180;52.742;11.420;2023-06-22T00:34:37;15.30;;;14.30;;
8584;SDS011;7180;52.742;11.420;2023-06-22T00:37:02;15.20;;;14.20;;
8584;SDS011;7180;52.742;11.420;2023-06-22T00:39:28;15.47;;;14.47;;
8584;SDS011;7180;52.742;11.420;2023-06-22T00:41:53;15.10;;;14.10;;
8584;SDS011;7180;52.742;11.420;2023-06-22T00:44:19;15.50;;;14.50;;
8584;SDS011;7180;52.742;11.420;2023-06-22T00:46:45;15.17;;;14.23;;
8584;SDS011;7180;52.742;11.420;2023-06-22T00:49:10;15.03;;;14.00;;
8584;SDS011;7180;52.742;11.420;2023-06-22T00:51:35;14.77;;;13.87;;
8584;SDS011;7180;52.742;11.420;2023-06-22T00:54:03;14.60;;;13.70;;
8584;SDS011;7180;52.742;11.420;2023-06-22T00:56:30;15.33;;;14.33;;
8584;SDS011;7180;52.742;11.420;2023-06-22T00:58:55;15.80;;;14.73;;
8584;SDS011;7180;52.742;11.420;2023-06-22T01:01:24;14.80;;;13.90;;
8584;SDS011;7180;52.742;11.420;2023-06-22T01:03:49;15.43;;;14.37;;
8584;SDS011;7180;52.742;11.420;2023-06-22T01:06:16;15.27;;;14.30;;
8584;SDS011;7180;52.742;11.420;2023-06-22T01:08:51;15.63;;;14.53;;
8584;SDS011;7180;52.742;11.420;2023-06-22T01:11:28;15.50;;;14.50;;
8584;SDS011;7180;52.742;11.420;2023-06-22T01:16:57;15.47;;;14.30;;
8584;SDS011;7180;52.742;11.420;2023-06-22T01:19:35;15.10;;;14.10;;
8584;SDS011;7180;52.742;11.420;2023-06-22T01:22:08;15.10;;;14.10;;
8584;SDS011;7180;52.742;11.420;2023-06-22T01:24:55;14.87;;;13.97;;
8584;SDS011;7180;52.742;11.420;2023-06-22T01:30:10;15.70;;;14.60;;
8584;SDS011;7180;52.742;11.420;2023-06-22T01:32:39;15.67;;;14.67;;
8584;SDS011;7180;52.742;11.420;2023-06-22T01:35:06;16.00;;;15.00;;
8584;SDS011;7180;52.742;11.420;2023-06-22T01:37:33;16.53;;;15.43;;
8584;SDS011;7180;52.742;11.420;2023-06-22T01:40:00;16.03;;;14.97;;
8584;SDS011;7180;52.742;11.420;2023-06-22T01:42:27;16.70;;;15.50;;
8584;SDS011;7180;52.742;11.420;2023-06-22T01:44:53;16.17;;;15.07;;
8584;SDS011;7180;52.742;11.420;2023-06-22T01:47:19;16.03;;;14.93;;
8584;SDS011;7180;52.742;11.420;2023-06-22T01:49:45;16.07;;;15.03;;
8584;SDS011;7180;52.742;11.420;2023-06-22T01:52:11;15.73;;;14.73;;
8584;SDS011;7180;52.742;11.420;2023-06-22T01:54:37;16.03;;;14.83;;
8584;SDS011;7180;52.742;11.420;2023-06-22T01:57:03;15.67;;;14.57;;
8584;SDS011;7180;52.742;11.420;2023-06-22T01:59:32;15.77;;;14.77;;
8584;SDS011;7180;52.742;11.420;2023-06-22T02:02:04;15.90;;;14.83;;
8584;SDS011;7180;52.742;11.420;2023-06-22T02:04:36;15.40;;;14.40;;
8584;SDS011;7180;52.742;11.420;2023-06-22T02:07:09;16.60;;;15.40;;
8584;SDS011;7180;52.742;11.420;2023-06-22T02:09:38;15.93;;;14.87;;
8584;SDS011;7180;52.742;11.420;2023-06-22T02:12:09;15.97;;;14.87;;
8584;SDS011;7180;52.742;11.420;2023-06-22T02:14:37;15.90;;;14.80;;
8584;SDS011;7180;52.742;11.420;2023-06-22T02:17:04;13.93;;;13.13;;
8584;SDS011;7180;52.742;11.420;2023-06-22T02:19:32;15.23;;;14.23;;
8584;SDS011;7180;52.742;11.420;2023-06-22T02:22:00;15.00;;;14.10;;
8584;SDS011;7180;52.742;11.420;2023-06-22T02:24:26;16.40;;;15.20;;
8584;SDS011;7180;52.742;11.420;2023-06-22T02:26:51;16.20;;;15.10;;
8584;SDS011;7180;52.742;11.420;2023-06-22T02:29:16;17.63;;;16.43;;
8584;SDS011;7180;52.742;11.420;2023-06-22T02:31:42;15.50;;;14.50;;
8584;SDS011;7180;52.742;11.420;2023-06-22T02:34:07;15.50;;;14.50;;
8584;SDS011;7180;52.742;11.420;2023-06-22T02:36:32;16.10;;;15.00;;
8584;SDS011;7180;52.742;11.420;2023-06-22T02:38:58;16.17;;;15.07;;
8584;SDS011;7180;52.742;11.420;2023-06-22T02:41:26;15.20;;;14.20;;
8584;SDS011;7180;52.742;11.420;2023-06-22T02:43:51;14.73;;;13.73;;
8584;SDS011;7180;52.742;11.420;2023-06-22T02:46:17;14.93;;;13.87;;
8584;SDS011;7180;52.742;11.420;2023-06-22T02:48:42;14.67;;;13.67;;
8584;SDS011;7180;52.742;11.420;2023-06-22T02:51:07;15.17;;;14.13;;
8584;SDS011;7180;52.742;11.420;2023-06-22T02:53:33;15.67;;;14.60;;
8584;SDS011;7180;52.742;11.420;2023-06-22T02:55:59;16.13;;;14.97;;
8584;SDS011;7180;52.742;11.420;2023-06-22T02:58:26;15.80;;;14.70;;
8584;SDS011;7180;52.742;11.420;2023-06-22T03:00:51;15.70;;;14.53;;
8584;SDS011;7180;52.742;11.420;2023-06-22T03:03:18;15.97;;;14.87;;
8584;SDS011;7180;52.742;11.420;2023-06-22T03:05:44;16.87;;;15.67;;
8584;SDS011;7180;52.742;11.420;2023-06-22T03:08:09;15.63;;;14.50;;
8584;SDS011;7180;52.742;11.420;2023-06-22T03:10:34;16.87;;;15.73;;
8584;SDS011;7180;52.742;11.420;2023-06-22T03:12:59;16.40;;;15.30;;
8584;SDS011;7180;52.742;11.420;2023-06-22T03:15:25;17.77;;;16.57;;
8584;SDS011;7180;52.742;11.420;2023-06-22T03:17:51;16.50;;;15.40;;
8584;SDS011;7180;52.742;11.420;2023-06-22T03:20:16;16.97;;;15.77;;
8584;SDS011;7180;52.742;11.420;2023-06-22T03:22:41;16.70;;;15.60;;
8584;SDS011;7180;52.742;11.420;2023-06-22T03:25:07;17.70;;;16.50;;
8584;SDS011;7180;52.742;11.420;2023-06-22T03:27:40;17.67;;;16.43;;
8584;SDS011;7180;52.742;11.420;2023-06-22T03:30:07;18.50;;;16.97;;
8584;SDS011;7180;52.742;11.420;2023-06-22T03:32:34;18.23;;;16.80;;
8584;SDS011;7180;52.742;11.420;2023-06-22T03:34:59;17.37;;;16.17;;
8584;SDS011;7180;52.742;11.420;2023-06-22T03:37:25;17.50;;;16.30;;
8584;SDS011;7180;52.742;11.420;2023-06-22T03:39:51;17.50;;;16.30;;
8584;SDS011;7180;52.742;11.420;2023-06-22T03:42:17;17.77;;;16.57;;
8584;SDS011;7180;52.742;11.420;2023-06-22T03:44:42;18.17;;;16.87;;
8584;SDS011;7180;52.742;11.420;2023-06-22T03:47:07;17.90;;;16.70;;
8584;SDS011;7180;52.742;11.420;2023-06-22T03:49:33;19.07;;;17.67;;
8584;SDS011;7180;52.742;11.420;2023-06-22T03:51:59;18.47;;;17.17;;
8584;SDS011;7180;52.742;11.420;2023-06-22T03:54:25;17.63;;;16.43;;
8584;SDS011;7180;52.742;11.420;2023-06-22T03:56:51;17.90;;;16.70;;
8584;SDS011;7180;52.742;11.420;2023-06-22T03:59:16;16.80;;;15.70;;
8584;SDS011;7180;52.742;11.420;2023-06-22T04:01:41;16.93;;;15.73;;
8584;SDS011;7180;52.742;11.420;2023-06-22T04:04:06;18.80;;;17.40;;
8584;SDS011;7180;52.742;11.420;2023-06-22T04:06:32;16.73;;;15.63;;
8584;SDS011;7180;52.742;11.420;2023-06-22T04:08:58;18.23;;;16.93;;
8584;SDS011;7180;52.742;11.420;2023-06-22T04:11:25;17.10;;;15.90;;
8584;SDS011;7180;52.742;11.420;2023-06-22T04:13:51;16.50;;;15.40;;
8584;SDS011;7180;52.742;11.420;2023-06-22T04:16:16;16.93;;;15.73;;
8584;SDS011;7180;52.742;11.420;2023-06-22T04:18:41;17.43;;;16.17;;
8584;SDS011;7180;52.742;11.420;2023-06-22T04:21:07;17.77;;;16.47;;
8584;SDS011;7180;52.742;11.420;2023-06-22T04:23:32;16.90;;;15.80;;
8584;SDS011;7180;52.742;11.420;2023-06-22T04:25:57;17.83;;;16.53;;
8584;SDS011;7180;52.742;11.420;2023-06-22T04:28:24;17.77;;;16.67;;
8584;SDS011;7180;52.742;11.420;2023-06-22T04:30:49;17.10;;;16.00;;
8584;SDS011;7180;52.742;11.420;2023-06-22T04:33:15;17.40;;;16.20;;
8584;SDS011;7180;52.742;11.420;2023-06-22T04:35:41;16.90;;;15.80;;
8584;SDS011;7180;52.742;11.420;2023-06-22T04:38:09;16.23;;;15.13;;
8584;SDS011;7180;52.742;11.420;2023-06-22T04:40:38;15.50;;;14.50;;
8584;SDS011;7180;52.742;11.420;2023-06-22T04:43:04;16.63;;;15.37;;
8584;SDS011;7180;52.742;11.420;2023-06-22T04:45:31;15.00;;;14.10;;
8584;SDS011;7180;52.742;11.420;2023-06-22T04:47:56;15.53;;;14.57;;
8584;SDS011;7180;52.742;11.420;2023-06-22T04:50:21;16.57;;;15.40;;
8584;SDS011;7180;52.742;11.420;2023-06-22T04:52:48;15.23;;;14.33;;
8584;SDS011;7180;52.742;11.420;2023-06-22T04:55:14;16.00;;;15.00;;
8584;SDS011;7180;52.742;11.420;2023-06-22T04:57:46;15.37;;;14.47;;
8584;SDS011;7180;52.742;11.420;2023-06-22T05:00:15;16.40;;;15.20;;
8584;SDS011;7180;52.742;11.420;2023-06-22T05:02:42;15.45;;;14.55;;
8584;SDS011;7180;52.742;11.420;2023-06-22T05:05:10;15.13;;;14.20;;
8584;SDS011;7180;52.742;11.420;2023-06-22T05:07:38;15.00;;;14.10;;
8584;SDS011;7180;52.742;11.420;2023-06-22T05:10:08;15.50;;;14.40;;
8584;SDS011;7180;52.742;11.420;2023-06-22T05:12:34;14.93;;;14.03;;
8584;SDS011;7180;52.742;11.420;2023-06-22T05:15:00;15.50;;;14.30;;
8584;SDS011;7180;52.742;11.420;2023-06-22T05:17:26;15.73;;;14.60;;
8584;SDS011;7180;52.742;11.420;2023-06-22T05:19:51;14.60;;;13.70;;
8584;SDS011;7180;52.742;11.420;2023-06-22T05:22:17;12.80;;;11.93;;
8584;SDS011;7180;52.742;11.420;2023-06-22T05:24:42;13.73;;;12.90;;
8584;SDS011;7180;52.742;11.420;2023-06-22T05:27:08;13.27;;;12.37;;
8584;SDS011;7180;52.742;11.420;2023-06-22T05:29:35;12.73;;;11.93;;
8584;SDS011;7180;52.742;11.420;2023-06-22T05:32:01;13.98;;;13.18;;
8584;SDS011;7180;52.742;11.420;2023-06-22T05:34:27;13.65;;;12.85;;
8584;SDS011;7180;52.742;11.420;2023-06-22T05:36:52;13.40;;;12.50;;
8584;SDS011;7180;52.742;11.420;2023-06-22T05:39:17;13.05;;;12.25;;
8584;SDS011;7180;52.742;11.420;2023-06-22T05:41:43;13.45;;;12.60;;
8584;SDS011;7180;52.742;11.420;2023-06-22T05:44:11;13.00;;;12.20;;
8584;SDS011;7180;52.742;11.420;2023-06-22T05:46:36;12.90;;;12.10;;
8584;SDS011;7180;52.742;11.420;2023-06-22T05:49:02;12.60;;;11.80;;
8584;SDS011;7180;52.742;11.420;2023-06-22T05:51:27;12.45;;;11.55;;
8584;SDS011;7180;52.742;11.420;2023-06-22T05:53:52;11.63;;;10.98;;
8584;SDS011;7180;52.742;11.420;2023-06-22T05:56:18;11.80;;;10.98;;
8584;SDS011;7180;52.742;11.420;2023-06-22T05:58:43;11.82;;;11.07;;
8584;SDS011;7180;52.742;11.420;2023-06-22T06:01:09;11.63;;;10.90;;
8584;SDS011;7180;52.742;11.420;2023-06-22T06:03:34;11.25;;;10.50;;
8584;SDS011;7180;52.742;11.420;2023-06-22T06:06:05;11.25;;;10.55;;
8584;SDS011;7180;52.742;11.420;2023-06-22T06:08:31;12.15;;;11.27;;
8584;SDS011;7180;52.742;11.420;2023-06-22T06:10:56;11.65;;;10.95;;
8584;SDS011;7180;52.742;11.420;2023-06-22T06:13:22;11.07;;;10.38;;
8584;SDS011;7180;52.742;11.420;2023-06-22T06:15:47;11.68;;;10.77;;
8584;SDS011;7180;52.742;11.420;2023-06-22T06:18:13;11.18;;;10.38;;
8584;SDS011;7180;52.742;11.420;2023-06-22T06:20:38;11.00;;;10.40;;
8584;SDS011;7180;52.742;11.420;2023-06-22T06:23:03;11.02;;;10.43;;
8584;SDS011;7180;52.742;11.420;2023-06-22T06:25:29;10.98;;;10.27;;
8584;SDS011;7180;52.742;11.420;2023-06-22T06:27:54;10.90;;;10.30;;
8584;SDS011;7180;52.742;11.420;2023-06-22T06:30:19;10.80;;;10.10;;
8584;SDS011;7180;52.742;11.420;2023-06-22T06:32:45;10.50;;;9.90;;
8584;SDS011;7180;52.742;11.420;2023-06-22T06:35:12;10.82;;;10.10;;
8584;SDS011;7180;52.742;11.420;2023-06-22T06:37:39;10.80;;;10.18;;
8584;SDS011;7180;52.742;11.420;2023-06-22T06:40:06;10.25;;;9.65;;
8584;SDS011;7180;52.742;11.420;2023-06-22T06:42:39;10.00;;;9.40;;
8584;SDS011;7180;52.742;11.420;2023-06-22T06:45:14;10.10;;;9.52;;
8584;SDS011;7180;52.742;11.420;2023-06-22T06:47:41;10.02;;;9.43;;
8584;SDS011;7180;52.742;11.420;2023-06-22T06:50:07;10.90;;;10.20;;
8584;SDS011;7180;52.742;11.420;2023-06-22T06:52:32;10.15;;;9.38;;
8584;SDS011;7180;52.742;11.420;2023-06-22T06:54:58;10.55;;;10.05;;
8584;SDS011;7180;52.742;11.420;2023-06-22T06:57:24;10.77;;;10.18;;
8584;SDS011;7180;52.742;11.420;2023-06-22T06:59:53;10.80;;;10.20;;
8584;SDS011;7180;52.742;11.420;2023-06-22T07:02:19;10.57;;;9.98;;
8584;SDS011;7180;52.742;11.420;2023-06-22T07:04:45;10.65;;;10.00;;
8584;SDS011;7180;52.742;11.420;2023-06-22T07:07:11;11.43;;;10.63;;
8584;SDS011;7180;52.742;11.420;2023-06-22T07:09:37;11.10;;;10.32;;
8584;SDS011;7180;52.742;11.420;2023-06-22T07:12:02;12.13;;;11.32;;
8584;SDS011;7180;52.742;11.420;2023-06-22T07:14:27;10.77;;;10.15;;
8584;SDS011;7180;52.742;11.420;2023-06-22T07:16:53;10.70;;;10.10;;
8584;SDS011;7180;52.742;11.420;2023-06-22T07:19:23;11.52;;;10.93;;
8584;SDS011;7180;52.742;11.420;2023-06-22T07:21:50;11.13;;;10.38;;
8584;SDS011;7180;52.742;11.420;2023-06-22T07:24:15;11.57;;;10.73;;
8584;SDS011;7180;52.742;11.420;2023-06-22T07:26:41;11.15;;;10.50;;
8584;SDS011;7180;52.742;11.420;2023-06-22T07:29:10;10.18;;;9.57;;
8584;SDS011;7180;52.742;11.420;2023-06-22T07:31:35;9.88;;;9.38;;
8584;SDS011;7180;52.742;11.420;2023-06-22T07:34:01;9.65;;;9.20;;
8584;SDS011;7180;52.742;11.420;2023-06-22T07:36:26;10.02;;;9.20;;
8584;SDS011;7180;52.742;11.420;2023-06-22T07:38:51;9.23;;;8.68;;
8584;SDS011;7180;52.742;11.420;2023-06-22T07:41:17;9.90;;;9.13;;
8584;SDS011;7180;52.742;11.420;2023-06-22T07:43:44;9.98;;;9.27;;
8584;SDS011;7180;52.742;11.420;2023-06-22T07:46:09;9.90;;;9.40;;
8584;SDS011;7180;52.742;11.420;2023-06-22T07:48:36;9.95;;;9.45;;
8584;SDS011;7180;52.742;11.420;2023-06-22T07:51:02;9.50;;;8.98;;
8584;SDS011;7180;52.742;11.420;2023-06-22T07:53:27;9.13;;;8.63;;
8584;SDS011;7180;52.742;11.420;2023-06-22T07:55:53;9.23;;;8.70;;
8584;SDS011;7180;52.742;11.420;2023-06-22T07:58:18;9.35;;;8.85;;
8584;SDS011;7180;52.742;11.420;2023-06-22T08:00:45;9.27;;;8.77;;
8584;SDS011;7180;52.742;11.420;2023-06-22T08:03:10;9.40;;;8.90;;
8584;SDS011;7180;52.742;11.420;2023-06-22T08:05:36;9.38;;;8.77;;
8584;SDS011;7180;52.742;11.420;2023-06-22T08:08:01;9.57;;;8.98;;
8584;SDS011;7180;52.742;11.420;2023-06-22T08:10:26;9.80;;;9.30;;
8584;SDS011;7180;52.742;11.420;2023-06-22T08:12:52;9.38;;;8.82;;
8584;SDS011;7180;52.742;11.420;2023-06-22T08:15:17;9.07;;;8.57;;
8584;SDS011;7180;52.742;11.420;2023-06-22T08:17:43;9.75;;;8.95;;
8584;SDS011;7180;52.742;11.420;2023-06-22T08:20:10;9.07;;;8.57;;
8584;SDS011;7180;52.742;11.420;2023-06-22T08:22:39;9.27;;;8.68;;
8584;SDS011;7180;52.742;11.420;2023-06-22T08:25:06;9.65;;;9.07;;
8584;SDS011;7180;52.742;11.420;2023-06-22T08:27:32;9.20;;;8.70;;
8584;SDS011;7180;52.742;11.420;2023-06-22T08:29:57;9.02;;;8.40;;
8584;SDS011;7180;52.742;11.420;2023-06-22T08:32:24;9.50;;;8.90;;
8584;SDS011;7180;52.742;11.420;2023-06-22T08:34:51;9.15;;;8.65;;
8584;SDS011;7180;52.742;11.420;2023-06-22T08:37:17;9.27;;;8.70;;
8584;SDS011;7180;52.742;11.420;2023-06-22T08:39:42;9.05;;;8.60;;
8584;SDS011;7180;52.742;11.420;2023-06-22T08:42:08;9.50;;;9.00;;
8584;SDS011;7180;52.742;11.420;2023-06-22T08:44:33;9.40;;;8.90;;
8584;SDS011;7180;52.742;11.420;2023-06-22T08:46:58;9.00;;;8.50;;
8584;SDS011;7180;52.742;11.420;2023-06-22T08:49:24;9.40;;;8.80;;
8584;SDS011;7180;52.742;11.420;2023-06-22T08:51:49;9.00;;;8.57;;
8584;SDS011;7180;52.742;11.420;2023-06-22T08:54:17;9.52;;;8.93;;
8584;SDS011;7180;52.742;11.420;2023-06-22T08:56:42;9.38;;;8.88;;
8584;SDS011;7180;52.742;11.420;2023-06-22T08:59:09;9.98;;;9.38;;
8584;SDS011;7180;52.742;11.420;2023-06-22T09:01:34;9.95;;;9.25;;
8584;SDS011;7180;52.742;11.420;2023-06-22T09:03:59;9.43;;;8.82;;
8584;SDS011;7180;52.742;11.420;2023-06-22T09:06:25;9.30;;;8.80;;
8584;SDS011;7180;52.742;11.420;2023-06-22T09:08:50;9.90;;;9.30;;
8584;SDS011;7180;52.742;11.420;2023-06-22T09:11:15;9.90;;;9.40;;
8584;SDS011;7180;52.742;11.420;2023-06-22T09:13:41;9.68;;;9.18;;
8584;SDS011;7180;52.742;11.420;2023-06-22T09:16:07;9.82;;;9.32;;
8584;SDS011;7180;52.742;11.420;2023-06-22T09:18:33;9.90;;;9.23;;
8584;SDS011;7180;52.742;11.420;2023-06-22T09:21:00;9.55;;;8.95;;
8584;SDS011;7180;52.742;11.420;2023-06-22T09:23:25;9.52;;;9.02;;
8584;SDS011;7180;52.742;11.420;2023-06-22T09:25:50;9.00;;;8.50;;
8584;SDS011;7180;52.742;11.420;2023-06-22T09:28:16;9.30;;;8.80;;
8584;SDS011;7180;52.742;11.420;2023-06-22T09:30:42;9.57;;;9.05;;
8584;SDS011;7180;52.742;11.420;2023-06-22T09:33:09;10.07;;;9.48;;
8584;SDS011;7180;52.742;11.420;2023-06-22T09:35:34;10.15;;;9.45;;
8584;SDS011;7180;52.742;11.420;2023-06-22T09:38:00;9.50;;;9.00;;
8584;SDS011;7180;52.742;11.420;2023-06-22T09:40:25;9.77;;;9.18;;
8584;SDS011;7180;52.742;11.420;2023-06-22T09:42:50;9.93;;;9.40;;
8584;SDS011;7180;52.742;11.420;2023-06-22T09:45:16;9.52;;;8.93;;
8584;SDS011;7180;52.742;11.420;2023-06-22T09:47:41;9.30;;;8.80;;
8584;SDS011;7180;52.742;11.420;2023-06-22T09:50:07;9.70;;;9.20;;
8584;SDS011;7180;52.742;11.420;2023-06-22T09:52:33;9.93;;;9.43;;
8584;SDS011;7180;52.742;11.420;2023-06-22T09:54:58;9.90;;;9.32;;
8584;SDS011;7180;52.742;11.420;2023-06-22T09:57:24;9.75;;;9.25;;
8584;SDS011;7180;52.742;11.420;2023-06-22T09:59:49;10.30;;;9.52;;
8584;SDS011;7180;52.742;11.420;2023-06-22T10:02:14;9.95;;;9.45;;
8584;SDS011;7180;52.742;11.420;2023-06-22T10:04:40;9.93;;;9.27;;
8584;SDS011;7180;52.742;11.420;2023-06-22T10:07:05;10.00;;;9.50;;
8584;SDS011;7180;52.742;11.420;2023-06-22T10:09:31;10.20;;;9.60;;
8584;SDS011;7180;52.742;11.420;2023-06-22T10:11:56;9.80;;;9.30;;
8584;SDS011;7180;52.742;11.420;2023-06-22T10:14:21;10.38;;;9.77;;
8584;SDS011;7180;52.742;11.420;2023-06-22T10:16:47;10.63;;;10.02;;
8584;SDS011;7180;52.742;11.420;2023-06-22T10:19:13;10.77;;;10.18;;
8584;SDS011;7180;52.742;11.420;2023-06-22T10:21:38;10.65;;;9.95;;
8584;SDS011;7180;52.742;11.420;2023-06-22T10:24:04;10.93;;;10.32;;
8584;SDS011;7180;52.742;11.420;2023-06-22T10:26:34;10.68;;;10.07;;
8584;SDS011;7180;52.742;11.420;2023-06-22T10:29:00;11.35;;;10.65;;
8584;SDS011;7180;52.742;11.420;2023-06-22T10:31:26;11.52;;;10.48;;
8584;SDS011;7180;52.742;11.420;2023-06-22T10:33:52;11.43;;;10.73;;
8584;SDS011;7180;52.742;11.420;2023-06-22T10:36:18;11.50;;;10.90;;
8584;SDS011;7180;52.742;11.420;2023-06-22T10:38:44;11.98;;;11.18;;
8584;SDS011;7180;52.742;11.420;2023-06-22T10:41:09;11.70;;;11.00;;
8584;SDS011;7180;52.742;11.420;2023-06-22T10:43:34;12.10;;;11.23;;
8584;SDS011;7180;52.742;11.420;2023-06-22T10:45:59;11.30;;;10.60;;
8584;SDS011;7180;52.742;11.420;2023-06-22T10:48:25;12.38;;;11.40;;
8584;SDS011;7180;52.742;11.420;2023-06-22T10:50:50;11.40;;;10.70;;
8584;SDS011;7180;52.742;11.420;2023-06-22T10:53:15;11.70;;;11.00;;
8584;SDS011;7180;52.742;11.420;2023-06-22T10:55:40;11.68;;;10.98;;
8584;SDS011;7180;52.742;11.420;2023-06-22T10:58:06;11.80;;;11.10;;
8584;SDS011;7180;52.742;11.420;2023-06-22T11:00:31;12.15;;;11.10;;
8584;SDS011;7180;52.742;11.420;2023-06-22T11:02:57;11.65;;;10.85;;
8584;SDS011;7180;52.742;11.420;2023-06-22T11:05:23;11.50;;;10.90;;
8584;SDS011;7180;52.742;11.420;2023-06-22T11:07:48;11.80;;;11.10;;
8584;SDS011;7180;52.742;11.420;2023-06-22T11:10:14;12.18;;;11.27;;
8584;SDS011;7180;52.742;11.420;2023-06-22T11:12:40;11.73;;;10.98;;
8584;SDS011;7180;52.742;11.420;2023-06-22T11:15:05;11.63;;;10.93;;
8584;SDS011;7180;52.742;11.420;2023-06-22T11:17:31;11.68;;;10.88;;
8584;SDS011;7180;52.742;11.420;2023-06-22T11:19:56;11.43;;;10.82;;
8584;SDS011;7180;52.742;11.420;2023-06-22T11:22:21;12.02;;;11.32;;
8584;SDS011;7180;52.742;11.420;2023-06-22T11:24:47;12.25;;;11.48;;
8584;SDS011;7180;52.742;11.420;2023-06-22T11:27:12;12.05;;;11.25;;
8584;SDS011;7180;52.742;11.420;2023-06-22T11:29:38;12.30;;;11.30;;
8584;SDS011;7180;52.742;11.420;2023-06-22T11:32:05;11.77;;;11.07;;
8584;SDS011;7180;52.742;11.420;2023-06-22T11:34:33;12.63;;;11.77;;
8584;SDS011;7180;52.742;11.420;2023-06-22T11:36:58;12.35;;;11.55;;
8584;SDS011;7180;52.742;11.420;2023-06-22T11:39:23;11.85;;;11.15;;
8584;SDS011;7180;52.742;11.420;2023-06-22T11:41:49;12.00;;;11.30;;
8584;SDS011;7180;52.742;11.420;2023-06-22T11:44:14;11.50;;;10.80;;
8584;SDS011;7180;52.742;11.420;2023-06-22T11:46:39;11.55;;;10.85;;
8584;SDS011;7180;52.742;11.420;2023-06-22T11:49:04;11.82;;;11.10;;
8584;SDS011;7180;52.742;11.420;2023-06-22T11:51:30;11.82;;;11.05;;
8584;SDS011;7180;52.742;11.420;2023-06-22T11:53:56;10.77;;;10.02;;
8584;SDS011;7180;52.742;11.420;2023-06-22T11:56:22;11.10;;;10.20;;
8584;SDS011;7180;52.742;11.420;2023-06-22T11:58:47;11.85;;;11.07;;
8584;SDS011;7180;52.742;11.420;2023-06-22T12:01:12;11.75;;;11.05;;
8584;SDS011;7180;52.742;11.420;2023-06-22T12:03:39;13.65;;;12.65;;
8584;SDS011;7180;52.742;11.420;2023-06-22T12:06:05;13.57;;;12.70;;
8584;SDS011;7180;52.742;11.420;2023-06-22T12:08:30;13.02;;;12.13;;
8584;SDS011;7180;52.742;11.420;2023-06-22T12:10:55;12.43;;;11.63;;
8584;SDS011;7180;52.742;11.420;2023-06-22T12:13:21;11.75;;;10.95;;
8584;SDS011;7180;52.742;11.420;2023-06-22T12:15:46;12.02;;;11.32;;
8584;SDS011;7180;52.742;11.420;2023-06-22T12:18:11;12.73;;;11.93;;
8584;SDS011;7180;52.742;11.420;2023-06-22T12:20:39;12.38;;;11.68;;
8584;SDS011;7180;52.742;11.420;2023-06-22T12:23:04;12.63;;;11.73;;
8584;SDS011;7180;52.742;11.420;2023-06-22T12:25:29;12.38;;;11.55;;
8584;SDS011;7180;52.742;11.420;2023-06-22T12:27:55;11.63;;;10.93;;
8584;SDS011;7180;52.742;11.420;2023-06-22T12:30:20;12.27;;;11.48;;
8584;SDS011;7180;52.742;11.420;2023-06-22T12:32:45;12.27;;;11.48;;
8584;SDS011;7180;52.742;11.420;2023-06-22T12:35:11;11.60;;;10.90;;
8584;SDS011;7180;52.742;11.420;2023-06-22T12:37:40;12.43;;;11.52;;
8584;SDS011;7180;52.742;11.420;2023-06-22T12:40:06;12.25;;;11.45;;
8584;SDS011;7180;52.742;11.420;2023-06-22T12:42:32;12.98;;;12.07;;
8584;SDS011;7180;52.742;11.420;2023-06-22T12:44:57;12.80;;;12.00;;
8584;SDS011;7180;52.742;11.420;2023-06-22T12:47:22;13.05;;;12.25;;
8584;SDS011;7180;52.742;11.420;2023-06-22T12:49:47;12.00;;;11.30;;
8584;SDS011;7180;52.742;11.420;2023-06-22T12:52:13;11.43;;;10.68;;
8584;SDS011;7180;52.742;11.420;2023-06-22T12:54:38;11.85;;;11.10;;
8584;SDS011;7180;52.742;11.420;2023-06-22T12:57:03;12.85;;;11.95;;
8584;SDS011;7180;52.742;11.420;2023-06-22T12:59:29;12.48;;;11.68;;
8584;SDS011;7180;52.742;11.420;2023-06-22T13:01:54;12.15;;;11.35;;
8584;SDS011;7180;52.742;11.420;2023-06-22T13:04:20;11.73;;;11.02;;
8584;SDS011;7180;52.742;11.420;2023-06-22T13:06:46;11.80;;;11.10;;
8584;SDS011;7180;52.742;11.420;2023-06-22T13:09:13;12.48;;;11.68;;
8584;SDS011;7180;52.742;11.420;2023-06-22T13:11:42;12.90;;;12.07;;
8584;SDS011;7180;52.742;11.420;2023-06-22T13:14:08;13.70;;;12.70;;
8584;SDS011;7180;52.742;11.420;2023-06-22T13:16:33;12.45;;;11.65;;
8584;SDS011;7180;52.742;11.420;2023-06-22T13:18:58;11.75;;;11.00;;
8584;SDS011;7180;52.742;11.420;2023-06-22T13:21:24;12.60;;;11.77;;
8584;SDS011;7180;52.742;11.420;2023-06-22T13:23:49;13.38;;;12.57;;
8584;SDS011;7180;52.742;11.420;2023-06-22T13:26:14;13.18;;;12.38;;
8584;SDS011;7180;52.742;11.420;2023-06-22T13:28:39;13.40;;;12.50;;
8584;SDS011;7180;52.742;11.420;2023-06-22T13:31:05;13.68;;;12.82;;
8584;SDS011;7180;52.742;11.420;2023-06-22T13:33:30;13.98;;;13.13;;
8584;SDS011;7180;52.742;11.420;2023-06-22T13:35:56;13.63;;;12.82;;
8584;SDS011;7180;52.742;11.420;2023-06-22T13:38:21;13.57;;;12.57;;
8584;SDS011;7180;52.742;11.420;2023-06-22T13:40:47;13.52;;;12.43;;
8584;SDS011;7180;52.742;11.420;2023-06-22T13:43:13;14.43;;;13.48;;
8584;SDS011;7180;52.742;11.420;2023-06-22T13:45:38;13.75;;;12.95;;
8584;SDS011;7180;52.742;11.420;2023-06-22T13:48:03;14.32;;;13.43;;
8584;SDS011;7180;52.742;11.420;2023-06-22T13:50:29;13.82;;;12.80;;
8584;SDS011;7180;52.742;11.420;2023-06-22T13:52:54;13.63;;;12.82;;
8584;SDS011;7180;52.742;11.420;2023-06-22T13:55:20;14.05;;;13.15;;
8584;SDS011;7180;52.742;11.420;2023-06-22T13:57:46;12.57;;;11.77;;
8584;SDS011;7180;52.742;11.420;2023-06-22T14:00:11;13.70;;;12.88;;
8584;SDS011;7180;52.742;11.420;2023-06-22T14:02:37;13.27;;;12.38;;
8584;SDS011;7180;52.742;11.420;2023-06-22T14:05:03;12.95;;;12.07;;
8584;SDS011;7180;52.742;11.420;2023-06-22T14:07:28;13.90;;;13.00;;
8584;SDS011;7180;52.742;11.420;2023-06-22T14:09:53;13.25;;;12.45;;
8584;SDS011;7180;52.742;11.420;2023-06-22T14:12:19;13.57;;;12.60;;
8584;SDS011;7180;52.742;11.420;2023-06-22T14:14:44;12.85;;;12.05;;
8584;SDS011;7180;52.742;11.420;2023-06-22T14:17:10;12.77;;;11.98;;
8584;SDS011;7180;52.742;11.420;2023-06-22T14:19:35;13.10;;;12.30;;
8584;SDS011;7180;52.742;11.420;2023-06-22T14:22:01;12.57;;;11.77;;
8584;SDS011;7180;52.742;11.420;2023-06-22T14:24:27;12.98;;;12.07;;
8584;SDS011;7180;52.742;11.420;2023-06-22T14:26:53;12.05;;;11.35;;
8584;SDS011;7180;52.742;11.420;2023-06-22T14:29:19;12.10;;;11.40;;
8584;SDS011;7180;52.742;11.420;2023-06-22T14:31:45;11.57;;;10.88;;
8584;SDS011;7180;52.742;11.420;2023-06-22T14:34:11;11.95;;;11.25;;
8584;SDS011;7180;52.742;11.420;2023-06-22T14:36:36;12.52;;;11.63;;
8584;SDS011;7180;52.742;11.420;2023-06-22T14:39:02;12.05;;;11.35;;